Time;durP1;ratioP1;P1;durP2;ratioP2;P2;SDS_P1;SDS_P2;PMS_P1;PMS_P2;Temp;Humidity;BMP_temperature;BMP_pressure;BME280_temperature;BME280_humidity;BME280_pressure;Samples;Min_cycle;Max_cycle;Signal;HPM_P1;HPM_P2
2022/04/01 00:01:22;;;;;;;5.80;2.40;;;;;;;3.04;69.21;97012.88;106057;1274;95311;-68
2022/04/01 00:03:52;;;;;;;11.00;2.70;;;;;;;3.04;69.29;97010.06;106034;1274;108397;-68
2022/04/01 00:06:20;;;;;;;8.70;2.20;;;;;;;3.04;69.40;97006.71;106068;1271;97873;-68
2022/04/01 00:08:48;;;;;;;8.20;2.90;;;;;;;3.06;69.31;96996.75;106094;1271;95353;-68
2022/04/01 00:11:16;;;;;;;9.20;2.80;;;;;;;3.06;69.34;96999.96;106124;1274;111049;-69
2022/04/01 00:13:44;;;;;;;5.80;3.00;;;;;;;3.06;69.29;97000.29;106195;1271;98526;-69
2022/04/01 00:16:12;;;;;;;5.00;2.50;;;;;;;3.06;69.38;96994.87;106193;1271;108332;-67
2022/04/01 00:18:41;;;;;;;3.70;2.20;;;;;;;3.03;69.58;96992.65;106160;1271;97761;-69
2022/04/01 00:21:09;;;;;;;2.90;1.90;;;;;;;3.00;69.09;96990.56;106083;1271;97758;-69
2022/04/01 00:23:37;;;;;;;3.30;1.80;;;;;;;3.01;69.40;96988.59;106062;1271;112078;-68
2022/04/01 00:26:05;;;;;;;4.30;2.70;;;;;;;2.98;69.52;96981.08;106098;1271;97957;-67
2022/04/01 00:28:33;;;;;;;3.70;1.90;;;;;;;2.95;69.41;96980.41;106102;1271;108296;-67
2022/04/01 00:31:02;;;;;;;5.60;2.50;;;;;;;2.94;69.27;96982.04;106083;1271;97812;-67
2022/04/01 00:33:31;;;;;;;4.90;2.00;;;;;;;2.95;69.56;96976.02;106090;1271;97876;-67
2022/04/01 00:36:00;;;;;;;6.10;2.20;;;;;;;2.96;69.17;96976.84;106079;1271;112043;-67
2022/04/01 00:38:28;;;;;;;5.30;2.20;;;;;;;2.94;69.20;96971.91;106096;1271;96929;-67
2022/04/01 00:40:58;;;;;;;5.20;2.20;;;;;;;2.93;68.91;96976.05;106078;1271;108329;-67
2022/04/01 00:43:28;;;;;;;7.80;2.40;;;;;;;2.92;69.37;96975.35;106060;1274;97985;-68
2022/04/01 00:45:57;;;;;;;9.30;3.60;;;;;;;2.94;69.35;96972.80;106180;1274;97743;-68
2022/04/01 00:48:27;;;;;;;7.60;2.40;;;;;;;2.97;69.32;96969.95;106141;1274;111001;-67
2022/04/01 00:50:57;;;;;;;9.00;2.60;;;;;;;2.97;69.64;96969.95;106105;1271;96671;-66
2022/04/01 00:53:25;;;;;;;6.00;2.70;;;;;;;2.91;69.92;96970.89;106094;1271;108387;-66
2022/04/01 00:55:54;;;;;;;6.00;2.90;;;;;;;2.88;69.35;96973.08;106113;1271;97869;-65
2022/04/01 00:58:23;;;;;;;6.70;3.10;;;;;;;2.88;69.60;96975.14;106138;1274;97802;-67
2022/04/01 01:00:51;;;;;;;4.70;2.30;;;;;;;2.89;69.37;96981.41;106109;1271;111528;-65
2022/04/01 01:03:20;;;;;;;4.30;2.10;;;;;;;2.90;69.68;96978.84;106078;1271;98573;-67
2022/04/01 01:05:49;;;;;;;3.40;1.70;;;;;;;2.90;69.56;96970.97;106118;1271;107816;-67
2022/04/01 01:08:18;;;;;;;2.40;1.40;;;;;;;2.90;69.24;96967.46;106111;1271;97953;-65
2022/04/01 01:10:46;;;;;;;1.80;1.60;;;;;;;2.90;69.27;96965.37;106092;1271;97922;-66
2022/04/01 01:13:14;;;;;;;3.30;1.70;;;;;;;2.92;69.44;96960.70;106138;1271;111973;-67
2022/04/01 01:15:42;;;;;;;2.40;1.60;;;;;;;2.94;69.31;96960.52;106203;1271;97901;-67
2022/04/01 01:18:15;;;;;;;1.90;1.70;;;;;;;2.94;69.63;96956.69;106203;1271;107841;-67
2022/04/01 01:20:43;;;;;;;2.00;1.70;;;;;;;2.93;69.72;96958.50;106185;1274;97965;-65
2022/04/01 01:23:12;;;;;;;3.30;2.10;;;;;;;2.93;69.70;96954.65;106151;1271;95198;-67
2022/04/01 01:25:41;;;;;;;1.70;1.20;;;;;;;2.93;69.26;96950.48;106158;1271;111859;-67
2022/04/01 01:28:10;;;;;;;1.90;1.60;;;;;;;2.94;69.89;96949.11;106177;1271;97778;-66
2022/04/01 01:30:39;;;;;;;1.50;1.40;;;;;;;2.92;69.37;96949.27;106152;1271;108424;-67
2022/04/01 01:33:07;;;;;;;2.10;1.60;;;;;;;2.93;69.70;96944.89;106137;1271;97966;-66
2022/04/01 01:35:35;;;;;;;5.10;1.80;;;;;;;2.92;69.37;96945.08;106188;1271;97947;-67
2022/04/01 01:38:03;;;;;;;2.10;1.80;;;;;;;2.94;69.37;96945.85;106172;1271;110947;-67
2022/04/01 01:40:32;;;;;;;2.40;1.60;;;;;;;2.92;69.40;96943.66;106185;1274;97860;-67
2022/04/01 01:43:00;;;;;;;2.60;1.40;;;;;;;2.90;69.57;96940.68;106102;1271;108670;-66
2022/04/01 01:45:29;;;;;;;1.90;1.40;;;;;;;2.90;70.06;96932.98;106225;1271;97969;-66
2022/04/01 01:47:57;;;;;;;2.90;1.50;;;;;;;2.86;69.58;96928.77;106232;1271;97929;-65
2022/04/01 01:56:00;;;;;;;1.50;1.30;;;;;;;2.82;69.59;96919.41;106123;1271;107815;-67
2022/04/01 01:58:28;;;;;;;2.80;1.80;;;;;;;2.82;69.46;96920.25;106196;1271;97950;-68
2022/04/01 02:00:57;;;;;;;2.90;1.30;;;;;;;2.80;70.04;96921.81;106192;1271;97726;-65
2022/04/01 02:03:25;;;;;;;1.50;1.30;;;;;;;2.78;69.54;96917.41;106116;1271;112167;-66
2022/04/01 02:05:53;;;;;;;2.20;1.20;;;;;;;2.78;70.35;96906.73;106106;1271;97975;-67
2022/04/01 02:08:21;;;;;;;2.40;1.70;;;;;;;2.73;69.83;96910.46;106143;1271;108798;-65
2022/04/01 02:10:49;;;;;;;1.20;1.10;;;;;;;2.68;69.62;96912.73;106095;1271;97975;-67
2022/04/01 02:13:17;;;;;;;2.40;1.40;;;;;;;2.69;70.35;96910.39;106138;1271;97854;-67
2022/04/01 02:15:45;;;;;;;2.70;1.90;;;;;;;2.67;69.72;96907.90;106180;1271;112042;-68
2022/04/01 02:18:13;;;;;;;4.10;1.30;;;;;;;2.67;70.36;96903.54;106204;1271;95198;-66
2022/04/01 02:20:42;;;;;;;1.90;1.20;;;;;;;2.63;69.78;96905.77;106108;1271;108220;-68
2022/04/01 02:23:11;;;;;;;1.60;1.20;;;;;;;2.63;69.70;96902.08;106126;1271;97896;-66
2022/04/01 02:25:42;;;;;;;1.30;1.20;;;;;;;2.63;69.95;96900.34;106090;1271;97967;-68
2022/04/01 02:28:12;;;;;;;3.40;1.60;;;;;;;2.63;69.69;96901.95;106177;1274;112064;-66
2022/04/01 02:30:41;;;;;;;3.40;1.60;;;;;;;2.65;69.83;96906.19;106104;1273;97853;-69
2022/04/01 02:33:10;;;;;;;4.60;1.80;;;;;;;2.66;69.48;96906.23;106052;1273;108307;-67
2022/04/01 02:35:38;;;;;;;2.80;1.40;;;;;;;2.70;69.86;96906.19;106076;1271;96504;-67
2022/04/01 02:38:06;;;;;;;3.00;1.40;;;;;;;2.72;69.77;96905.81;106117;1271;97905;-67
2022/04/01 02:40:36;;;;;;;3.00;1.40;;;;;;;2.73;70.05;96903.10;106076;1274;110948;-67
2022/04/01 02:43:05;;;;;;;1.80;1.20;;;;;;;2.73;69.98;96907.69;106072;1271;99044;-68
2022/04/01 02:45:34;;;;;;;3.10;1.10;;;;;;;2.74;69.76;96903.56;106066;1274;107376;-68
2022/04/01 02:48:05;;;;;;;4.30;1.80;;;;;;;2.75;69.70;96903.84;106114;1274;97956;-67
2022/04/01 02:50:34;;;;;;;1.30;0.90;;;;;;;2.74;69.94;96900.61;106105;1271;96317;-67
2022/04/01 02:53:02;;;;;;;4.20;1.70;;;;;;;2.68;69.78;96901.36;106191;1271;111012;-67
2022/04/01 02:55:30;;;;;;;1.60;1.40;;;;;;;2.65;69.68;96900.49;106198;1271;98702;-68
2022/04/01 02:57:59;;;;;;;4.00;2.00;;;;;;;2.65;69.98;96904.58;106082;1271;109207;-67
2022/04/01 03:00:39;;;;;;;5.60;2.20;;;;;;;2.64;70.20;96907.96;106102;1271;97905;-67
2022/04/01 03:03:09;;;;;;;4.40;1.70;;;;;;;2.62;69.85;96907.23;106109;1271;97832;-65
2022/04/01 03:05:39;;;;;;;5.40;2.20;;;;;;;2.62;69.77;96909.33;106111;1271;111407;-69
2022/04/01 03:08:09;;;;;;;5.30;2.20;;;;;;;2.62;69.95;96906.54;106059;1274;96150;-66
2022/04/01 03:10:39;;;;;;;3.30;2.00;;;;;;;2.64;69.83;96908.13;106066;1274;107733;-68
2022/04/01 03:13:08;;;;;;;7.40;3.40;;;;;;;2.65;69.99;96908.79;106077;1274;97956;-65
2022/04/01 03:15:39;;;;;;;3.90;2.80;;;;;;;2.63;70.19;96902.27;106136;1272;95214;-68
2022/04/01 03:18:09;;;;;;;5.20;2.90;;;;;;;2.60;69.82;96905.15;106040;1274;111709;-68
2022/04/01 03:20:38;;;;;;;5.10;2.90;;;;;;;2.60;69.84;96902.88;106101;1274;95256;-66
2022/04/01 03:23:06;;;;;;;3.90;3.00;;;;;;;2.62;69.96;96906.35;106081;1274;108415;-67
2022/04/01 03:25:35;;;;;;;5.80;3.50;;;;;;;2.63;69.91;96905.11;106116;1274;96779;-68
2022/04/01 03:28:03;;;;;;;8.10;3.40;;;;;;;2.64;70.18;96904.66;106169;1274;97939;-68
2022/04/01 03:30:31;;;;;;;7.70;4.20;;;;;;;2.65;69.91;96908.08;106128;1273;111650;-68
2022/04/01 03:33:00;;;;;;;6.50;3.30;;;;;;;2.68;69.78;96906.79;106154;1271;97770;-68
2022/04/01 03:35:28;;;;;;;6.60;3.30;;;;;;;2.68;69.94;96907.11;106192;1271;108394;-67
2022/04/01 03:37:58;;;;;;;14.30;5.30;;;;;;;2.67;69.89;96906.33;105776;1271;540977;-69
2022/04/01 03:40:30;;;;;;;13.40;4.40;;;;;;;2.66;70.10;96905.20;106079;1271;96265;-67
2022/04/01 03:42:59;;;;;;;13.20;3.80;;;;;;;2.62;70.22;96899.93;106081;1271;110909;-67
2022/04/01 03:45:27;;;;;;;13.90;4.40;;;;;;;2.58;69.94;96895.45;106070;1271;97673;-66
2022/04/01 03:48:10;;;;;;;10.70;3.40;;;;;;;2.58;69.93;96895.98;106044;1274;108290;-67
2022/04/01 03:50:43;;;;;;;6.60;3.10;;;;;;;2.55;70.20;96891.52;106051;1274;97953;-66
2022/04/01 03:53:13;;;;;;;8.10;3.10;;;;;;;2.52;70.00;96888.04;106104;1274;97752;-68
2022/04/01 03:55:47;;;;;;;6.40;2.80;;;;;;;2.49;69.67;96895.27;106068;1274;112226;-69
2022/04/01 03:58:16;;;;;;;;;;;;;;;2.47;69.90;96895.80;106119;1273;96435;-66
2022/04/01 04:00:44;;;;;;;9.70;3.70;;;;;;;2.46;69.96;96898.48;106145;1274;108235;-69
2022/04/01 04:03:13;;;;;;;6.10;2.90;;;;;;;2.49;69.94;96892.30;106192;1274;97987;-67
2022/04/01 04:05:43;;;;;;;6.80;2.90;;;;;;;2.50;69.96;96888.67;106144;1274;95251;-68
2022/04/01 04:08:20;;;;;;;6.40;3.00;;;;;;;2.52;70.11;96894.48;106072;1274;111521;-63
2022/04/01 04:10:53;;;;;;;7.90;3.00;;;;;;;2.52;69.91;96904.48;106100;1274;97881;-69
2022/04/01 04:13:25;;;;;;;5.70;2.70;;;;;;;2.52;70.39;96904.66;106065;1274;107782;-67
2022/04/01 04:16:20;;;;;;;8.50;4.00;;;;;;;2.52;70.13;96912.55;106058;1274;97964;-69
2022/04/01 04:18:54;;;;;;;8.50;3.40;;;;;;;2.56;70.12;96913.98;105958;1273;96345;-67
2022/04/01 04:21:31;;;;;;;8.60;3.50;;;;;;;2.58;70.00;96910.17;106168;1274;111498;-67
2022/04/01 04:24:03;;;;;;;6.80;3.40;;;;;;;2.60;69.98;96911.27;106227;1274;97902;-67
2022/04/01 04:26:35;;;;;;;7.90;3.20;;;;;;;2.62;69.96;96913.75;106118;1273;108337;-67
2022/04/01 04:29:16;;;;;;;8.70;3.30;;;;;;;2.66;70.03;96918.48;106070;1272;96487;-67
2022/04/01 04:31:59;;;;;;;4.40;2.80;;;;;;;2.69;70.32;96921.59;106097;1273;97892;-67
2022/04/01 04:34:44;;;;;;;5.10;2.80;;;;;;;2.66;70.10;96918.13;106201;1268;112020;-67
2022/04/01 04:37:22;;;;;;;6.40;2.80;;;;;;;2.66;70.10;96912.52;106156;1272;95221;-68
2022/04/01 04:39:52;;;;;;;8.40;3.30;;;;;;;2.68;70.13;96914.15;106063;1274;108491;-70
2022/04/01 04:42:21;;;;;;;12.60;3.80;;;;;;;2.69;70.12;96913.92;106111;1271;97917;-69
2022/04/01 04:44:49;;;;;;;11.80;3.70;;;;;;;2.69;70.15;96915.29;106182;1271;97845;-69
2022/04/01 04:47:26;;;;;;;19.00;5.70;;;;;;;2.71;69.98;96913.42;106103;1271;111933;-67
2022/04/01 04:49:58;;;;;;;11.70;4.30;;;;;;;2.71;69.96;96910.63;106122;1271;97955;-68
2022/04/01 04:52:32;;;;;;;16.80;4.40;;;;;;;2.71;70.00;96912.22;106114;1270;106001;-68
2022/04/01 04:55:03;;;;;;;11.60;3.90;;;;;;;2.72;70.17;96912.28;106127;1271;97878;-68
2022/04/01 04:57:33;;;;;;;8.60;3.30;;;;;;;2.73;70.33;96914.85;106119;1270;97857;-72
2022/04/01 05:00:02;;;;;;;12.60;3.70;;;;;;;2.74;70.16;96916.73;106073;1274;111390;-70
2022/04/01 05:02:52;;;;;;;13.80;4.20;;;;;;;2.74;69.97;96914.45;106090;1271;97828;-67
2022/04/01 05:05:26;;;;;;;9.00;2.90;;;;;;;2.76;70.39;96913.19;106098;1271;108358;-68
2022/04/01 05:08:00;;;;;;;8.00;3.30;;;;;;;2.77;70.11;96910.83;106127;1273;95303;-67
2022/04/01 05:11:09;;;;;;;10.00;3.20;;;;;;;2.78;70.15;96912.92;106063;1274;97725;-67
2022/04/01 05:13:59;;;;;;;28.40;12.90;;;;;;;2.77;70.15;96912.42;106067;1274;112034;-66
2022/04/01 05:16:41;;;;;;;22.90;9.50;;;;;;;2.79;70.47;96912.95;106140;1274;97835;-68
2022/04/01 05:19:12;;;;;;;15.60;4.70;;;;;;;2.78;70.15;96913.60;106114;1271;107704;-68
2022/04/01 05:21:55;;;;;;;15.20;4.60;;;;;;;2.76;70.24;96911.64;106106;1271;97989;-66
2022/04/01 05:24:32;;;;;;;16.50;4.90;;;;;;;2.75;70.10;96911.58;106073;1274;97891;-68
2022/04/01 05:27:05;;;;;;;17.50;6.00;;;;;;;2.75;70.30;96908.73;106099;1273;112043;-68
2022/04/01 05:29:37;;;;;;;20.70;7.90;;;;;;;2.76;70.07;96908.66;106106;1274;97979;-68
2022/04/01 05:32:07;;;;;;;16.00;5.80;;;;;;;2.74;70.07;96910.02;106047;1274;108238;-67
2022/04/01 05:34:42;;;;;;;14.20;4.70;;;;;;;2.72;69.95;96913.31;106102;1274;97984;-68
2022/04/01 05:37:11;;;;;;;14.00;4.10;;;;;;;2.71;70.07;96917.98;106095;1274;96355;-68
2022/04/01 05:39:41;;;;;;;13.50;4.20;;;;;;;2.70;69.96;96914.88;106072;1274;113253;-67
2022/04/01 05:42:10;;;;;;;10.40;3.60;;;;;;;2.70;70.13;96920.67;106078;1274;97874;-68
2022/04/01 05:44:42;;;;;;;12.70;4.40;;;;;;;2.69;70.21;96921.41;106067;1271;108314;-67
2022/04/01 05:47:10;;;;;;;12.80;4.40;;;;;;;2.71;70.15;96926.17;106024;1273;98024;-69
2022/04/01 05:49:44;;;;;;;11.50;4.30;;;;;;;2.70;70.08;96931.54;106159;1271;98524;-69
2022/04/01 05:52:13;;;;;;;8.70;3.40;;;;;;;2.70;70.35;96931.70;106096;1271;112014;-71
2022/04/01 05:54:43;;;;;;;9.00;3.70;;;;;;;2.74;70.19;96933.86;106106;1271;98007;-68
2022/04/01 05:57:12;;;;;;;9.10;3.80;;;;;;;2.77;70.32;96932.41;106056;1274;108694;-68
2022/04/01 05:59:41;;;;;;;7.90;3.40;;;;;;;2.80;70.08;96931.26;106137;1272;97930;-69
2022/04/01 06:02:43;;;;;;;7.30;3.10;;;;;;;2.85;70.09;96936.33;106122;1271;96296;-69
2022/04/01 06:05:17;;;;;;;12.40;4.10;;;;;;;2.88;70.40;96937.69;106201;1271;112019;-68
2022/04/01 06:07:51;;;;;;;;;;;;;;;2.91;70.18;96938.15;106157;1270;97870;-68
2022/04/01 06:10:37;;;;;;;15.50;4.50;;;;;;;2.92;69.93;96940.92;106079;1271;108190;-69
2022/04/01 06:13:30;;;;;;;13.90;5.50;;;;;;;2.95;70.52;96940.14;106117;1271;97827;-69
2022/04/01 06:16:16;;;;;;;14.00;5.10;;;;;;;2.94;70.16;96943.34;106018;1271;99019;-69
2022/04/01 06:19:21;;;;;;;13.30;4.60;;;;;;;2.94;70.26;96944.94;106114;1274;111479;-69
2022/04/01 06:22:17;;;;;;;12.70;4.90;;;;;;;2.93;70.23;96940.66;106046;1273;97883;-68
2022/04/01 06:25:00;;;;;;;13.10;4.40;;;;;;;2.91;70.01;96940.95;106002;1274;108605;-70
2022/04/01 06:27:38;;;;;;;15.50;5.10;;;;;;;2.90;70.00;96938.29;106066;1270;97958;-69
2022/04/01 06:30:11;;;;;;;13.00;4.40;;;;;;;2.85;70.25;96933.23;106208;1270;97723;-69
2022/04/01 06:32:55;;;;;;;9.80;4.40;;;;;;;2.81;70.15;96933.83;106191;1271;111835;-70
2022/04/01 06:35:40;;;;;;;11.00;4.10;;;;;;;2.82;70.18;96926.96;106205;1270;97871;-68
2022/04/01 06:38:12;;;;;;;14.30;4.80;;;;;;;2.83;70.28;96923.02;106133;1274;107386;-68
2022/04/01 06:41:04;;;;;;;13.90;4.90;;;;;;;2.85;70.14;96925.16;106195;1271;97865;-67
2022/04/01 06:43:34;;;;;;;10.90;4.10;;;;;;;2.90;69.91;96921.98;106211;1274;97850;-68
2022/04/01 06:46:03;;;;;;;9.20;3.60;;;;;;;2.90;69.99;96918.61;106217;1271;111398;-68
2022/04/01 06:48:32;;;;;;;13.40;4.80;;;;;;;2.90;70.07;96920.39;106215;1271;95235;-69
2022/04/01 06:51:00;;;;;;;16.00;4.80;;;;;;;2.88;70.10;96923.34;106189;1271;110881;-69
2022/04/01 06:53:28;;;;;;;15.40;4.80;;;;;;;2.85;70.07;96926.41;106183;1271;96334;-69
2022/04/01 06:55:56;;;;;;;18.10;5.70;;;;;;;2.83;70.12;96925.45;106216;1271;97898;-69
2022/04/01 06:58:29;;;;;;;13.00;4.70;;;;;;;2.88;70.30;96933.52;106201;1271;111981;-70
2022/04/01 07:00:58;;;;;;;13.50;4.50;;;;;;;2.88;70.26;96938.91;106061;1274;97951;-69
2022/04/01 07:03:33;;;;;;;14.80;4.20;;;;;;;2.88;70.45;96941.88;106050;1271;106712;-68
2022/04/01 07:06:06;;;;;;;8.90;3.40;;;;;;;2.86;70.31;96944.99;106095;1274;97930;-69
2022/04/01 07:08:35;;;;;;;20.70;6.60;;;;;;;2.81;70.46;96944.14;106079;1272;97897;-70
2022/04/01 07:11:03;;;;;;;21.90;7.50;;;;;;;2.77;70.23;96949.38;106155;1274;111498;-68
2022/04/01 07:13:32;;;;;;;12.90;4.30;;;;;;;2.76;70.29;96944.34;106077;1274;97893;-68
2022/04/01 07:16:00;;;;;;;10.40;4.10;;;;;;;2.73;70.31;96949.33;106069;1271;108046;-69
2022/04/01 07:18:29;;;;;;;12.80;4.60;;;;;;;2.73;70.43;96950.73;106036;1271;96471;-69
2022/04/01 07:20:58;;;;;;;15.90;5.90;;;;;;;2.74;70.65;96941.88;106155;1270;97858;-68
2022/04/01 07:23:27;;;;;;;13.40;4.80;;;;;;;2.73;70.58;96940.94;106085;1271;112709;-69
2022/04/01 07:25:55;;;;;;;15.50;4.90;;;;;;;2.75;70.55;96935.02;106099;1274;97721;-68
2022/04/01 07:28:25;;;;;;;13.90;4.80;;;;;;;2.76;70.26;96935.66;106083;1271;108335;-68
2022/04/01 07:30:54;;;;;;;13.10;4.70;;;;;;;2.78;70.36;96935.15;106097;1271;97917;-70
2022/04/01 07:33:22;;;;;;;8.90;3.50;;;;;;;2.78;70.65;96934.75;106052;1271;95271;-68
2022/04/01 07:35:55;;;;;;;9.80;3.50;;;;;;;2.76;70.28;96934.38;106052;1269;112017;-69
2022/04/01 07:38:23;;;;;;;11.50;4.60;;;;;;;2.77;70.47;96936.38;106036;1273;96452;-69
2022/04/01 07:40:51;;;;;;;11.80;4.60;;;;;;;2.81;70.49;96937.66;106054;1271;107727;-68
2022/04/01 07:43:19;;;;;;;8.10;3.50;;;;;;;2.84;70.92;96943.23;106032;1270;96350;-68
2022/04/01 07:45:47;;;;;;;8.00;3.20;;;;;;;2.84;70.17;96946.02;106090;1271;97986;-67
2022/04/01 07:48:15;;;;;;;5.00;2.90;;;;;;;2.86;70.52;96948.71;106056;1270;112007;-67
2022/04/01 07:50:44;;;;;;;4.50;2.70;;;;;;;2.90;70.53;96953.13;106021;1274;98603;-67
2022/04/01 07:53:12;;;;;;;6.30;3.00;;;;;;;2.91;70.28;96955.86;106019;1271;108747;-68
2022/04/01 07:55:42;;;;;;;13.00;4.80;;;;;;;2.92;70.62;96960.36;106032;1271;97947;-68
2022/04/01 07:58:11;;;;;;;18.80;7.30;;;;;;;2.92;70.48;96966.11;106054;1272;97886;-69
2022/04/01 08:00:52;;;;;;;17.10;6.50;;;;;;;2.95;70.44;96965.35;106093;1272;112097;-67
2022/04/01 08:03:21;;;;;;;17.90;6.60;;;;;;;2.95;70.33;96966.77;106167;1271;97966;-69
2022/04/01 08:05:48;;;;;;;17.50;5.70;;;;;;;2.97;70.78;96966.58;106135;1274;108814;-70
2022/04/01 08:08:19;;;;;;;12.00;4.50;;;;;;;2.97;70.57;96967.66;106054;1274;97878;-68
2022/04/01 08:10:47;;;;;;;15.10;5.30;;;;;;;2.96;70.57;96964.61;106038;1271;97940;-70
2022/04/01 08:13:15;;;;;;;15.20;4.90;;;;;;;2.97;70.36;96966.94;106079;1271;112008;-69
2022/04/01 08:15:43;;;;;;;13.60;4.80;;;;;;;3.01;70.34;96964.80;106132;1271;96396;-69
2022/04/01 08:18:17;;;;;;;7.60;3.60;;;;;;;2.98;70.72;96963.52;106122;1271;107894;-69
2022/04/01 08:20:45;;;;;;;6.90;3.50;;;;;;;3.02;70.52;96961.20;106163;1274;98556;-67
2022/04/01 08:23:13;;;;;;;10.20;4.50;;;;;;;3.06;70.48;96964.91;106123;1273;98071;-69
2022/04/01 08:25:42;;;;;;;10.90;5.00;;;;;;;3.09;70.64;96965.20;106087;1273;111069;-69
2022/04/01 08:28:12;;;;;;;7.20;3.60;;;;;;;3.08;70.39;96968.20;106113;1274;98392;-69
2022/04/01 08:30:41;;;;;;;11.20;4.40;;;;;;;3.08;70.30;96966.84;106121;1274;107721;-71
2022/04/01 08:33:09;;;;;;;18.10;7.70;;;;;;;3.09;70.42;96966.93;106082;1274;98104;-69
2022/04/01 08:35:37;;;;;;;19.40;8.20;;;;;;;3.11;70.44;96966.95;106085;1274;97886;-68
2022/04/01 08:38:05;;;;;;;16.20;6.40;;;;;;;3.14;70.71;96968.34;106020;1274;112010;-71
2022/04/01 08:40:33;;;;;;;11.90;4.40;;;;;;;3.16;70.40;96963.96;106072;1271;97730;-70
2022/04/01 08:43:00;;;;;;;11.40;4.80;;;;;;;3.17;70.34;96960.77;106123;1271;107710;-68
2022/04/01 08:45:32;;;;;;;10.50;5.00;;;;;;;3.19;70.91;96963.06;106081;1271;97857;-70
2022/04/01 08:48:03;;;;;;;12.40;4.30;;;;;;;3.21;70.56;96966.75;106117;1271;97824;-70
2022/04/01 08:50:31;;;;;;;11.40;4.40;;;;;;;3.24;70.63;96970.86;106092;1271;110834;-69
2022/04/01 08:53:00;;;;;;;7.80;3.30;;;;;;;3.29;70.75;96968.56;106135;1271;97367;-70
2022/04/01 08:55:28;;;;;;;11.90;4.20;;;;;;;3.31;70.46;96971.10;106132;1271;107642;-69
2022/04/01 08:57:56;;;;;;;14.90;5.80;;;;;;;3.34;70.52;96969.66;106098;1270;97970;-69
2022/04/01 09:00:24;;;;;;;18.90;7.60;;;;;;;3.36;70.42;96965.23;106097;1271;96359;-69
2022/04/01 09:02:59;;;;;;;19.80;8.60;;;;;;;3.38;70.33;96958.84;106156;1271;111318;-70
2022/04/01 09:05:28;;;;;;;18.90;7.40;;;;;;;3.41;70.61;96957.88;106141;1271;95269;-69
2022/04/01 09:08:04;;;;;;;19.10;6.40;;;;;;;3.46;70.63;96955.42;106083;1271;107729;-71
2022/04/01 09:10:56;;;;;;;23.50;9.00;;;;;;;3.51;70.91;96948.54;106077;1271;97944;-70
2022/04/01 09:13:33;;;;;;;14.10;5.60;;;;;;;3.54;70.65;96950.40;106092;1271;97960;-69
2022/04/01 09:16:03;;;;;;;15.20;4.60;;;;;;;3.57;70.87;96949.39;106164;1271;111906;-69
2022/04/01 09:18:43;;;;;;;15.30;4.40;;;;;;;3.59;70.50;96954.37;106154;1271;97889;-69
2022/04/01 09:21:13;;;;;;;16.20;5.20;;;;;;;3.59;70.55;96955.24;106130;1271;107719;-67
2022/04/01 09:23:47;;;;;;;11.30;3.90;;;;;;;3.60;70.77;96954.84;106089;1271;97972;-68
2022/04/01 09:26:21;;;;;;;6.30;2.90;;;;;;;3.57;70.55;96954.73;106175;1271;97850;-69
2022/04/01 09:28:52;;;;;;;9.10;3.50;;;;;;;3.57;70.58;96949.92;106116;1271;111370;-67
2022/04/01 09:31:32;;;;;;;9.10;3.60;;;;;;;3.55;70.63;96958.33;106060;1271;97899;-71
2022/04/01 09:34:11;;;;;;;13.90;4.70;;;;;;;3.55;70.74;96957.80;106068;1270;107745;-67
2022/04/01 09:36:41;;;;;;;15.50;5.00;;;;;;;3.54;70.89;96955.05;105971;1271;97962;-70
2022/04/01 09:39:14;;;;;;;17.60;6.00;;;;;;;3.54;70.75;96955.11;106191;1270;97863;-67
2022/04/01 09:41:43;;;;;;;18.50;6.40;;;;;;;3.54;70.95;96959.61;106194;1271;109190;-66
2022/04/01 09:44:34;;;;;;;16.00;5.60;;;;;;;3.52;70.97;96957.38;106181;1271;95215;-71
2022/04/01 09:47:05;;;;;;;10.30;3.70;;;;;;;3.53;70.90;96960.73;106156;1271;107827;-70
2022/04/01 09:49:38;;;;;;;10.90;3.70;;;;;;;3.53;70.72;96954.67;106181;1271;97955;-70
2022/04/01 09:52:12;;;;;;;7.10;3.30;;;;;;;3.50;70.77;96954.73;106225;1271;97949;-69
2022/04/01 09:54:45;;;;;;;7.20;3.00;;;;;;;3.47;70.65;96954.06;106153;1271;111438;-68
2022/04/01 09:57:16;;;;;;;8.50;3.20;;;;;;;3.49;71.02;96952.99;106212;1274;98011;-71
2022/04/01 09:59:45;;;;;;;11.70;3.90;;;;;;;3.53;70.83;96950.25;106206;1274;107910;-69
2022/04/01 10:02:13;;;;;;;9.00;3.40;;;;;;;3.55;70.65;96954.67;106125;1271;96478;-69
2022/04/01 10:04:41;;;;;;;5.60;2.60;;;;;;;3.56;70.75;96957.71;106205;1271;97863;-69
2022/04/01 10:07:10;;;;;;;5.20;2.50;;;;;;;3.60;70.88;96956.41;106174;1271;112036;-70
2022/04/01 10:09:39;;;;;;;7.70;3.10;;;;;;;3.65;70.73;96958.32;106220;1271;96491;-70
2022/04/01 10:12:31;;;;;;;13.20;4.60;;;;;;;3.69;70.94;96956.92;106102;1271;108007;-68
2022/04/01 10:15:00;;;;;;;10.70;4.40;;;;;;;3.71;70.70;96956.43;106082;1271;97970;-69
2022/04/01 10:17:51;;;;;;;7.40;2.70;;;;;;;3.73;70.78;96953.48;106045;1271;97837;-71
2022/04/01 10:20:22;;;;;;;6.70;2.80;;;;;;;3.71;70.83;96952.17;106054;1271;111399;-69
2022/04/01 10:22:51;;;;;;;9.30;3.00;;;;;;;3.75;70.62;96952.25;106120;1271;95304;-71
2022/04/01 10:25:45;;;;;;;9.80;3.30;;;;;;;3.77;70.84;96956.88;106089;1271;107614;-70
2022/04/01 10:28:14;;;;;;;;;;;;;;;3.79;70.86;96957.20;106182;1271;97964;-69
2022/04/01 10:30:54;;;;;;;9.30;3.10;;;;;;;3.78;70.76;96953.64;106161;1271;97955;-69
2022/04/01 10:33:25;;;;;;;7.30;2.90;;;;;;;3.80;70.81;96949.27;106005;1271;112105;-69
2022/04/01 10:35:55;;;;;;;9.30;4.10;;;;;;;3.80;70.71;96950.27;106060;1271;97937;-68
2022/04/01 10:38:29;;;;;;;9.50;3.80;;;;;;;3.81;70.86;96950.41;106075;1271;107714;-69
2022/04/01 10:41:15;;;;;;;9.20;3.90;;;;;;;3.79;70.70;96957.34;106098;1271;98008;-70
2022/04/01 10:43:45;;;;;;;6.90;3.50;;;;;;;3.80;70.83;96954.52;106121;1271;95333;-68
2022/04/01 10:46:16;;;;;;;6.80;3.30;;;;;;;3.82;70.65;96951.36;106107;1271;111377;-69
2022/04/01 10:52:18;;;;;;;12.70;4.80;;;;;;;3.85;70.60;96957.29;106026;1271;107581;-70
2022/04/01 10:54:48;;;;;;;11.20;3.80;;;;;;;3.90;70.68;96952.35;106066;1274;98332;-69
2022/04/01 10:57:30;;;;;;;10.20;4.30;;;;;;;3.86;70.75;96957.70;106147;1271;97971;-69
2022/04/01 11:00:04;;;;;;;11.60;4.60;;;;;;;3.86;70.66;96967.88;106058;1271;111403;-70
2022/04/01 11:02:32;;;;;;;9.80;3.90;;;;;;;3.88;70.75;96972.61;106119;1271;98530;-69
2022/04/01 11:05:22;;;;;;;7.40;3.40;;;;;;;3.91;70.50;96976.98;106044;1270;107658;-73
2022/04/01 11:08:20;;;;;;;11.40;4.00;;;;;;;3.94;70.74;96968.13;106074;1271;95365;-68
2022/04/01 11:11:08;;;;;;;12.60;4.30;;;;;;;3.99;71.01;96958.27;106117;1271;98569;-69
2022/04/01 11:13:37;;;;;;;10.40;3.70;;;;;;;3.95;70.69;96964.86;106009;1271;112472;-69
2022/04/01 11:16:20;;;;;;;10.60;4.10;;;;;;;3.94;70.52;96958.97;106083;1271;97961;-70
2022/04/01 11:19:15;;;;;;;10.80;3.70;;;;;;;3.93;70.83;96958.02;106062;1271;107614;-71
2022/04/01 11:21:45;;;;;;;8.80;4.00;;;;;;;3.91;70.68;96963.95;106024;1271;97884;-72
2022/04/01 11:24:38;;;;;;;12.20;4.30;;;;;;;3.93;70.84;96964.20;106076;1271;97876;-70
2022/04/01 11:27:26;;;;;;;13.20;4.50;;;;;;;3.96;70.93;96959.89;106134;1271;111171;-71
2022/04/01 11:30:08;;;;;;;9.10;3.70;;;;;;;3.98;70.51;96960.61;106143;1271;97860;-71
2022/04/01 11:32:38;;;;;;;13.20;4.60;;;;;;;3.99;70.90;96955.42;106059;1271;107639;-70
2022/04/01 11:35:08;;;;;;;15.60;5.20;;;;;;;3.99;70.55;96951.44;106087;1271;95262;-70
2022/04/01 11:37:41;;;;;;;14.10;4.70;;;;;;;4.03;70.84;96949.70;106052;1271;97922;-69
2022/04/01 11:40:16;;;;;;;8.90;4.00;;;;;;;4.08;70.79;96946.20;106055;1271;112508;-69
2022/04/01 11:43:07;;;;;;;10.00;4.10;;;;;;;4.11;71.05;96941.39;106064;1271;97894;-68
2022/04/01 11:45:39;;;;;;;9.20;4.40;;;;;;;4.11;70.89;96940.11;106093;1271;107723;-71
2022/04/01 11:48:22;;;;;;;6.20;3.70;;;;;;;4.14;70.59;96937.06;106142;1271;95372;-69
2022/04/01 11:50:54;;;;;;;7.70;4.00;;;;;;;4.17;70.71;96941.70;106215;1271;97945;-72
2022/04/01 11:53:30;;;;;;;9.20;3.70;;;;;;;4.18;70.87;96945.36;106110;1271;111048;-70
2022/04/01 11:56:05;;;;;;;10.40;4.60;;;;;;;4.16;70.73;96938.50;106180;1271;97905;-69
2022/04/01 11:58:51;;;;;;;10.80;4.30;;;;;;;4.13;70.85;96933.67;106174;1271;107729;-71
2022/04/01 12:01:21;;;;;;;11.30;4.20;;;;;;;4.15;70.69;96931.75;106143;1271;96082;-70